createdAt,value
2023-01-29T00:01:15.676Z,96.80
2023-01-29T00:03:43.052Z,96.90
2023-01-29T00:06:10.158Z,96.90
2023-01-29T00:08:37.226Z,97.10
2023-01-29T00:11:04.349Z,97.10
2023-01-29T00:13:31.318Z,97.10
2023-01-29T00:15:58.631Z,97.70
2023-01-29T00:18:25.343Z,97.20
2023-01-29T00:20:52.048Z,97.30
2023-01-29T00:23:18.887Z,97.20
2023-01-29T00:25:46.028Z,97.10
2023-01-29T00:28:12.674Z,97.20
2023-01-29T00:30:40.088Z,97.70
2023-01-29T00:33:06.851Z,97.20
2023-01-29T00:35:33.986Z,97.20
2023-01-29T00:38:03.120Z,97.40
2023-01-29T00:40:49.654Z,97.70
2023-01-29T00:43:35.204Z,97.80
2023-01-29T00:46:01.823Z,98.20
2023-01-29T00:48:28.510Z,98.10
2023-01-29T00:50:55.287Z,98.30
2023-01-29T00:53:21.948Z,98.10
2023-01-29T00:55:48.609Z,98.40
2023-01-29T00:58:22.286Z,98.50
2023-01-29T01:00:49.660Z,98.90
2023-01-29T01:03:16.856Z,99.30
2023-01-29T01:05:44.074Z,99.10
2023-01-29T01:08:29.798Z,99.00
2023-01-29T01:10:57.032Z,99.90
2023-01-29T01:13:24.176Z,99.20
2023-01-29T01:15:53.795Z,99.30
2023-01-29T01:18:22.772Z,99.70
2023-01-29T01:20:51.874Z,99.60
2023-01-29T01:23:19.087Z,99.60
2023-01-29T01:25:46.535Z,99.90
2023-01-29T01:28:15.962Z,99.80
2023-01-29T01:30:43.130Z,99.90
2023-01-29T01:33:10.394Z,99.90
2023-01-29T01:35:37.627Z,99.90
2023-01-29T01:38:04.739Z,99.90
2023-01-29T01:40:32.100Z,99.90
2023-01-29T01:42:59.173Z,99.90
2023-01-29T01:45:26.356Z,99.90
2023-01-29T01:47:53.554Z,99.90
2023-01-29T01:50:20.689Z,99.90
2023-01-29T01:52:47.919Z,99.90
2023-01-29T01:55:15.160Z,99.90
2023-01-29T01:57:42.319Z,99.90
2023-01-29T02:00:11.762Z,99.90
2023-01-29T02:02:57.345Z,99.90
2023-01-29T02:05:43.225Z,99.90
2023-01-29T02:08:29.023Z,99.90
2023-01-29T02:10:56.145Z,99.90
2023-01-29T02:13:23.282Z,99.90
2023-01-29T02:15:50.383Z,99.90
2023-01-29T02:18:17.792Z,99.90
2023-01-29T02:20:44.956Z,99.90
2023-01-29T02:23:12.138Z,99.90
2023-01-29T02:25:39.428Z,99.90
2023-01-29T02:28:06.561Z,99.90
2023-01-29T02:30:33.747Z,99.90
2023-01-29T02:33:00.802Z,99.90
2023-01-29T02:35:32.209Z,99.90
2023-01-29T02:37:59.547Z,99.90
2023-01-29T02:40:26.445Z,99.90
2023-01-29T02:42:53.521Z,99.90
2023-01-29T02:45:21.127Z,99.90
2023-01-29T02:47:48.230Z,99.90
2023-01-29T02:50:15.971Z,99.90
2023-01-29T02:52:45.001Z,99.90
2023-01-29T02:55:12.024Z,99.90
2023-01-29T02:57:38.858Z,99.90
2023-01-29T03:00:07.657Z,99.90
2023-01-29T03:02:34.924Z,99.90
2023-01-29T03:05:11.291Z,99.90
2023-01-29T03:07:42.811Z,99.90
2023-01-29T03:10:09.921Z,99.90
2023-01-29T03:12:36.948Z,99.90
2023-01-29T03:15:13.281Z,99.90
2023-01-29T03:17:40.482Z,99.90
2023-01-29T03:20:08.232Z,99.90
2023-01-29T03:22:35.261Z,99.90
2023-01-29T03:25:20.942Z,99.90
2023-01-29T03:28:06.302Z,99.90
2023-01-29T03:30:51.907Z,99.90
2023-01-29T03:33:19.127Z,99.90
2023-01-29T03:35:48.633Z,99.90
2023-01-29T03:38:16.199Z,99.90
2023-01-29T03:40:43.354Z,99.90
2023-01-29T03:43:10.720Z,99.90
2023-01-29T03:45:37.792Z,99.90
2023-01-29T03:48:04.591Z,99.90
2023-01-29T03:50:31.812Z,99.90
2023-01-29T03:52:59.642Z,99.90
2023-01-29T03:55:26.786Z,99.90
2023-01-29T03:57:53.970Z,99.90
2023-01-29T04:00:21.653Z,99.90
2023-01-29T04:02:48.746Z,99.90
2023-01-29T04:05:15.888Z,99.90
2023-01-29T04:07:42.914Z,99.90
2023-01-29T04:10:10.139Z,99.90
2023-01-29T04:12:37.216Z,99.90
2023-01-29T04:15:04.323Z,99.90
2023-01-29T04:17:33.278Z,99.90
2023-01-29T04:20:00.341Z,99.90
2023-01-29T04:22:27.389Z,99.90
2023-01-29T04:24:54.521Z,99.90
2023-01-29T04:27:21.644Z,99.90
2023-01-29T04:29:48.571Z,99.90
2023-01-29T04:32:15.718Z,99.90
2023-01-29T04:34:42.748Z,99.90
2023-01-29T04:37:09.750Z,99.90
2023-01-29T04:39:36.878Z,99.90
2023-01-29T04:42:03.932Z,99.90
2023-01-29T04:44:30.985Z,99.90
2023-01-29T04:46:58.126Z,99.90
2023-01-29T04:49:25.304Z,99.90
2023-01-29T04:51:52.565Z,99.90
2023-01-29T04:54:20.037Z,99.90
2023-01-29T04:56:47.025Z,99.90
2023-01-29T04:59:14.073Z,99.90
2023-01-29T05:01:41.259Z,99.90
2023-01-29T05:04:08.335Z,99.90
2023-01-29T05:06:35.299Z,99.90
2023-01-29T05:09:02.441Z,99.90
2023-01-29T05:11:29.311Z,99.90
2023-01-29T05:13:56.327Z,99.90
2023-01-29T05:16:23.622Z,99.90
2023-01-29T05:18:50.843Z,99.90
2023-01-29T05:21:17.998Z,99.90
2023-01-29T05:23:53.584Z,99.90
2023-01-29T05:26:39.198Z,99.90
2023-01-29T05:29:06.419Z,99.90
2023-01-29T05:31:33.500Z,99.90
2023-01-29T05:34:00.544Z,99.90
2023-01-29T05:36:27.775Z,99.90
2023-01-29T05:38:54.817Z,99.90
2023-01-29T05:41:21.912Z,99.90
2023-01-29T05:43:49.231Z,99.90
2023-01-29T05:46:16.360Z,99.90
2023-01-29T05:48:43.430Z,99.90
2023-01-29T05:51:10.580Z,99.90
2023-01-29T05:53:37.609Z,99.90
2023-01-29T05:56:04.889Z,99.90
2023-01-29T05:58:32.189Z,99.90
2023-01-29T06:01:00.267Z,99.90
2023-01-29T06:03:27.296Z,99.90
2023-01-29T06:05:54.323Z,99.90
2023-01-29T06:08:21.258Z,99.90
2023-01-29T06:10:48.489Z,99.90
2023-01-29T06:13:15.616Z,99.90
2023-01-29T06:15:42.646Z,99.90
2023-01-29T06:18:09.752Z,99.90
2023-01-29T06:20:36.737Z,99.90
2023-01-29T06:23:03.758Z,99.90
2023-01-29T06:25:30.918Z,99.90
2023-01-29T06:27:59.544Z,99.90
2023-01-29T06:30:26.707Z,99.90
2023-01-29T06:32:53.750Z,99.90
2023-01-29T06:35:20.830Z,99.90
2023-01-29T06:37:47.885Z,99.90
2023-01-29T06:40:15.252Z,99.90
2023-01-29T06:42:43.321Z,99.90
2023-01-29T06:45:11.859Z,99.90
2023-01-29T06:47:38.890Z,99.90
2023-01-29T06:50:05.961Z,99.90
2023-01-29T06:52:33.133Z,99.90
2023-01-29T06:55:00.499Z,99.90
2023-01-29T06:57:27.462Z,99.90
2023-01-29T06:59:54.452Z,99.90
2023-01-29T07:02:21.831Z,99.90
2023-01-29T07:04:49.091Z,99.90
2023-01-29T07:07:16.230Z,99.90
2023-01-29T07:09:43.378Z,99.90
2023-01-29T07:12:10.422Z,99.90
2023-01-29T07:14:37.504Z,99.90
2023-01-29T07:17:04.666Z,99.90
2023-01-29T07:19:31.927Z,99.90
2023-01-29T07:22:02.653Z,99.90
2023-01-29T07:24:29.724Z,99.90
2023-01-29T07:26:57.162Z,99.90
2023-01-29T07:29:24.228Z,99.90
2023-01-29T07:31:51.425Z,99.90
2023-01-29T07:34:18.740Z,99.90
2023-01-29T07:36:45.866Z,99.90
2023-01-29T07:39:13.186Z,99.90
2023-01-29T07:41:40.342Z,99.90
2023-01-29T07:44:07.541Z,99.90
2023-01-29T07:46:34.717Z,99.90
2023-01-29T07:49:01.890Z,99.90
2023-01-29T07:51:28.959Z,99.90
2023-01-29T07:53:56.057Z,99.90
2023-01-29T07:56:23.273Z,99.90
2023-01-29T07:58:50.387Z,99.90
2023-01-29T08:01:17.575Z,99.90
2023-01-29T08:03:44.570Z,99.90
2023-01-29T08:06:11.576Z,99.90
2023-01-29T08:08:38.251Z,99.90
2023-01-29T08:11:05.994Z,99.90
2023-01-29T08:13:33.208Z,99.90
2023-01-29T08:16:00.566Z,99.90
2023-01-29T08:18:27.707Z,99.40
2023-01-29T08:20:54.441Z,99.90
2023-01-29T08:23:21.737Z,99.70
2023-01-29T08:25:48.448Z,99.10
2023-01-29T08:28:15.459Z,99.20
2023-01-29T08:30:44.087Z,99.80
2023-01-29T08:33:10.723Z,99.30
2023-01-29T08:35:37.598Z,99.10
2023-01-29T08:38:04.797Z,99.70
2023-01-29T08:40:34.793Z,99.30
2023-01-29T08:43:02.741Z,99.30
2023-01-29T08:45:30.799Z,98.60
2023-01-29T08:47:57.731Z,99.20
2023-01-29T08:50:24.909Z,98.30
2023-01-29T08:52:52.005Z,98.20
2023-01-29T08:55:19.448Z,98.40
2023-01-29T08:57:46.610Z,98.20
2023-01-29T09:00:13.716Z,99.30
2023-01-29T09:02:40.910Z,98.60
2023-01-29T09:05:08.182Z,98.30
2023-01-29T09:07:35.300Z,98.20
2023-01-29T09:10:02.327Z,99.10
2023-01-29T09:12:29.519Z,98.40
2023-01-29T09:14:56.386Z,98.30
2023-01-29T09:17:23.106Z,97.90
2023-01-29T09:19:49.754Z,98.30
2023-01-29T09:22:16.847Z,98.10
2023-01-29T09:24:44.178Z,98.50
2023-01-29T09:27:11.355Z,99.10
2023-01-29T09:29:38.450Z,98.50
2023-01-29T09:32:05.673Z,98.90
2023-01-29T09:34:34.198Z,98.90
2023-01-29T09:37:01.307Z,98.50
2023-01-29T09:39:28.084Z,98.70
2023-01-29T09:41:55.300Z,99.10
2023-01-29T09:44:22.155Z,98.80
2023-01-29T09:46:49.212Z,98.80
2023-01-29T09:49:16.260Z,98.80
2023-01-29T09:51:43.316Z,99.00
2023-01-29T09:54:10.372Z,99.30
2023-01-29T09:56:37.350Z,98.70
2023-01-29T09:59:04.492Z,99.90
2023-01-29T10:01:32.096Z,99.30
2023-01-29T10:03:58.895Z,99.20
2023-01-29T10:06:25.570Z,98.80
2023-01-29T10:08:52.641Z,99.10
2023-01-29T10:11:19.678Z,98.40
2023-01-29T10:13:47.589Z,98.50
2023-01-29T10:16:14.608Z,98.60
2023-01-29T10:18:41.335Z,98.90
2023-01-29T10:21:07.914Z,99.10
2023-01-29T10:23:41.143Z,98.60
2023-01-29T10:26:10.616Z,99.30
2023-01-29T10:28:37.587Z,98.20
2023-01-29T10:31:04.367Z,98.30
2023-01-29T10:33:48.773Z,98.50
2023-01-29T10:36:18.089Z,99.90
2023-01-29T10:38:44.761Z,99.90
2023-01-29T10:41:11.382Z,99.90
2023-01-29T10:43:38.706Z,99.90
2023-01-29T10:46:05.341Z,99.90
2023-01-29T10:48:33.769Z,99.90
2023-01-29T10:51:02.682Z,99.90
2023-01-29T10:53:29.335Z,99.90
2023-01-29T10:55:55.939Z,99.90
2023-01-29T10:58:22.592Z,99.90
2023-01-29T11:00:49.198Z,99.90
2023-01-29T11:03:26.971Z,99.90
2023-01-29T11:05:53.964Z,99.90
2023-01-29T11:08:20.584Z,99.90
2023-01-29T11:10:47.186Z,99.90
2023-01-29T11:13:13.847Z,99.90
2023-01-29T11:15:40.495Z,99.90
2023-01-29T11:18:07.435Z,99.90
2023-01-29T11:20:34.197Z,99.90
2023-01-29T11:23:06.706Z,99.90
2023-01-29T11:25:34.211Z,99.90
2023-01-29T11:28:01.836Z,99.90
2023-01-29T11:30:28.515Z,99.90
2023-01-29T11:32:55.181Z,99.90
2023-01-29T11:35:21.841Z,99.90
2023-01-29T11:37:49.408Z,99.90
2023-01-29T11:40:17.100Z,99.90
2023-01-29T11:42:44.065Z,99.90
2023-01-29T11:45:10.804Z,99.90
2023-01-29T11:47:37.517Z,99.90
2023-01-29T11:50:04.236Z,99.90
2023-01-29T11:52:30.895Z,99.90
2023-01-29T11:54:57.671Z,99.90
2023-01-29T11:57:24.300Z,99.90
2023-01-29T11:59:51.018Z,99.90
2023-01-29T12:02:17.746Z,99.90
2023-01-29T12:04:44.390Z,99.90
2023-01-29T12:07:11.090Z,99.90
2023-01-29T12:09:39.901Z,99.90
2023-01-29T12:12:06.557Z,99.90
2023-01-29T12:14:42.116Z,99.90
2023-01-29T12:17:08.775Z,99.90
2023-01-29T12:19:35.427Z,99.90
2023-01-29T12:22:03.883Z,99.90
2023-01-29T12:24:34.440Z,99.90
2023-01-29T12:27:01.486Z,99.90
2023-01-29T12:29:28.240Z,99.90
2023-01-29T12:31:54.904Z,99.90
2023-01-29T12:34:21.625Z,99.90
2023-01-29T12:36:53.134Z,99.90
2023-01-29T12:39:19.808Z,99.90
2023-01-29T12:41:46.444Z,99.90
2023-01-29T12:44:13.131Z,99.90
2023-01-29T12:46:39.863Z,99.90
2023-01-29T12:49:06.531Z,99.90
2023-01-29T12:51:33.225Z,99.90
2023-01-29T12:53:59.880Z,99.90
2023-01-29T12:56:26.505Z,99.90
2023-01-29T12:58:53.175Z,99.90
2023-01-29T13:01:19.894Z,99.90
2023-01-29T13:03:48.439Z,99.90
2023-01-29T13:06:15.331Z,99.90
2023-01-29T13:08:42.000Z,99.90
2023-01-29T13:11:08.631Z,99.90
2023-01-29T13:13:36.308Z,99.90
2023-01-29T13:16:03.020Z,99.90
2023-01-29T13:18:29.774Z,99.90
2023-01-29T13:20:56.436Z,99.90
2023-01-29T13:23:23.155Z,99.90
2023-01-29T13:25:49.878Z,99.90
2023-01-29T13:28:16.603Z,99.90
2023-01-29T13:30:43.351Z,99.90
2023-01-29T13:33:10.704Z,99.90
2023-01-29T13:35:38.080Z,99.90
2023-01-29T13:38:04.701Z,99.90
2023-01-29T13:40:31.497Z,99.90
2023-01-29T13:43:00.236Z,99.90
2023-01-29T13:45:27.580Z,99.90
2023-01-29T13:47:54.185Z,99.90
2023-01-29T13:50:20.925Z,99.90
2023-01-29T13:52:48.032Z,99.90
2023-01-29T13:55:15.978Z,99.90
2023-01-29T13:57:42.823Z,99.90
2023-01-29T14:00:09.541Z,99.90
2023-01-29T14:02:36.392Z,99.90
2023-01-29T14:05:03.077Z,99.90
2023-01-29T14:07:29.712Z,99.90
2023-01-29T14:09:56.451Z,99.90
2023-01-29T14:12:23.129Z,99.90
2023-01-29T14:14:49.811Z,99.90
2023-01-29T14:17:16.463Z,99.90
2023-01-29T14:19:43.164Z,99.90
2023-01-29T14:22:10.008Z,99.90
2023-01-29T14:24:37.011Z,99.90
2023-01-29T14:27:03.695Z,99.90
2023-01-29T14:29:34.997Z,99.90
2023-01-29T14:32:01.904Z,99.90
2023-01-29T14:34:28.630Z,99.90
2023-01-29T14:36:55.720Z,99.90
2023-01-29T14:39:22.429Z,99.90
2023-01-29T14:41:49.479Z,99.90
2023-01-29T14:44:16.100Z,99.90
2023-01-29T14:46:42.821Z,99.90
2023-01-29T14:49:09.855Z,99.90
2023-01-29T14:51:36.701Z,99.90
2023-01-29T14:54:03.411Z,99.90
2023-01-29T14:56:30.006Z,99.90
2023-01-29T14:58:57.295Z,99.90
2023-01-29T15:01:23.908Z,99.90
2023-01-29T15:03:53.401Z,99.90
2023-01-29T15:06:20.070Z,99.90
2023-01-29T15:08:46.713Z,99.90
2023-01-29T15:11:32.365Z,99.90
2023-01-29T15:13:59.066Z,99.90
2023-01-29T15:16:25.676Z,99.90
2023-01-29T15:18:52.361Z,99.90
2023-01-29T15:21:18.979Z,99.90
2023-01-29T15:23:45.692Z,99.90
2023-01-29T15:26:12.586Z,99.90
2023-01-29T15:28:39.316Z,99.90
2023-01-29T15:31:06.210Z,99.90
2023-01-29T15:33:32.989Z,99.90
2023-01-29T15:36:07.344Z,99.90
2023-01-29T15:38:34.615Z,99.90
2023-01-29T15:41:01.280Z,99.90
2023-01-29T15:43:27.894Z,99.90
2023-01-29T15:45:54.721Z,99.90
2023-01-29T15:48:22.691Z,99.90
2023-01-29T15:50:49.297Z,99.90
2023-01-29T15:53:16.114Z,99.90
2023-01-29T15:55:42.803Z,99.90
2023-01-29T15:58:10.698Z,99.90
2023-01-29T16:00:37.399Z,99.90
2023-01-29T16:03:04.088Z,99.90
2023-01-29T16:05:30.833Z,99.90
2023-01-29T16:07:57.547Z,99.90
2023-01-29T16:10:24.173Z,99.90
2023-01-29T16:12:51.666Z,99.90
2023-01-29T16:15:18.574Z,99.90
2023-01-29T16:17:45.412Z,99.90
2023-01-29T16:20:12.023Z,99.90
2023-01-29T16:22:38.653Z,99.90
2023-01-29T16:25:05.305Z,99.90
2023-01-29T16:27:31.879Z,99.90
2023-01-29T16:29:58.570Z,99.90
2023-01-29T16:32:25.218Z,99.90
2023-01-29T16:34:54.584Z,99.90
2023-01-29T16:37:21.235Z,99.90
2023-01-29T16:39:47.885Z,99.90
2023-01-29T16:42:20.201Z,99.90
2023-01-29T16:44:47.502Z,99.90
2023-01-29T16:47:14.769Z,99.90
2023-01-29T16:49:42.027Z,99.90
2023-01-29T16:52:09.135Z,99.90
2023-01-29T16:54:36.498Z,99.90
2023-01-29T16:57:03.956Z,99.90
2023-01-29T16:59:31.077Z,99.90
2023-01-29T17:01:58.224Z,99.90
2023-01-29T17:04:25.280Z,99.90
2023-01-29T17:06:52.359Z,99.90
2023-01-29T17:09:19.417Z,99.90
2023-01-29T17:11:46.466Z,99.90
2023-01-29T17:14:13.518Z,99.90
2023-01-29T17:16:40.548Z,99.90
2023-01-29T17:19:07.621Z,99.90
2023-01-29T17:21:34.751Z,99.90
2023-01-29T17:24:01.965Z,99.90
2023-01-29T17:26:29.383Z,99.90
2023-01-29T17:28:56.561Z,99.90
2023-01-29T17:31:23.861Z,99.90
2023-01-29T17:33:50.992Z,99.90
2023-01-29T17:36:17.976Z,99.90
2023-01-29T17:38:45.041Z,99.90
2023-01-29T17:41:12.245Z,99.90
2023-01-29T17:43:39.319Z,99.90
2023-01-29T17:46:06.686Z,99.90
2023-01-29T17:48:33.911Z,99.90
2023-01-29T17:51:01.442Z,99.90
2023-01-29T17:53:43.367Z,99.90
2023-01-29T17:56:11.741Z,99.90
2023-01-29T17:58:38.894Z,99.90
2023-01-29T18:01:06.072Z,99.90
2023-01-29T18:03:33.190Z,99.90
2023-01-29T18:06:00.327Z,99.90
2023-01-29T18:08:27.556Z,99.90
2023-01-29T18:11:03.982Z,99.90
2023-01-29T18:13:31.133Z,99.90
2023-01-29T18:15:58.610Z,99.90
2023-01-29T18:18:25.722Z,99.90
2023-01-29T18:20:52.901Z,99.90
2023-01-29T18:23:23.298Z,99.90
2023-01-29T18:25:50.573Z,99.90
2023-01-29T18:28:17.793Z,99.90
2023-01-29T18:30:46.108Z,99.90
2023-01-29T18:33:13.227Z,99.90
2023-01-29T18:35:40.297Z,99.90
2023-01-29T18:38:07.431Z,99.90
2023-01-29T18:40:34.821Z,99.90
2023-01-29T18:43:02.655Z,99.90
2023-01-29T18:45:30.007Z,99.90
2023-01-29T18:47:57.961Z,99.90
2023-01-29T18:50:26.464Z,99.90
2023-01-29T18:52:53.674Z,99.90
2023-01-29T18:55:20.607Z,99.90
2023-01-29T18:58:25.118Z,99.90
2023-01-29T19:00:34.784Z,99.90
2023-01-29T19:03:01.813Z,99.90
2023-01-29T19:05:28.949Z,99.90
2023-01-29T19:07:56.398Z,99.90
2023-01-29T19:10:23.523Z,99.90
2023-01-29T19:12:50.461Z,99.90
2023-01-29T19:15:21.081Z,99.90
2023-01-29T19:17:48.115Z,99.90
2023-01-29T19:20:15.786Z,99.90
2023-01-29T19:22:43.019Z,99.90
2023-01-29T19:25:10.275Z,99.90
2023-01-29T19:27:37.433Z,99.90
2023-01-29T19:30:06.062Z,99.90
2023-01-29T19:32:33.178Z,99.90
2023-01-29T19:35:00.573Z,99.90
2023-01-29T19:37:27.915Z,99.90
2023-01-29T19:39:55.028Z,99.90
2023-01-29T19:42:22.293Z,99.90
2023-01-29T19:44:50.967Z,99.90
2023-01-29T19:47:18.050Z,99.90
2023-01-29T19:49:45.256Z,99.90
2023-01-29T19:52:38.586Z,99.90
2023-01-29T19:55:17.100Z,99.90
2023-01-29T19:57:44.507Z,99.90
2023-01-29T20:00:12.517Z,99.90
2023-01-29T20:02:39.772Z,99.90
2023-01-29T20:05:08.135Z,99.90
2023-01-29T20:07:36.352Z,99.90
2023-01-29T20:10:03.944Z,99.90
2023-01-29T20:12:30.924Z,99.90
2023-01-29T20:14:58.133Z,99.90
2023-01-29T20:17:25.109Z,99.90
2023-01-29T20:19:52.418Z,99.90
2023-01-29T20:22:19.870Z,99.90
2023-01-29T20:24:47.446Z,99.90
2023-01-29T20:27:14.994Z,99.90
2023-01-29T20:29:43.911Z,99.90
2023-01-29T20:32:11.970Z,99.90
2023-01-29T20:34:39.047Z,99.90
2023-01-29T20:37:06.055Z,99.90
2023-01-29T20:39:33.248Z,99.90
2023-01-29T20:42:00.389Z,99.90
2023-01-29T20:44:27.572Z,99.90
2023-01-29T20:46:55.239Z,99.90
2023-01-29T20:49:22.572Z,99.90
2023-01-29T20:51:49.806Z,99.90
2023-01-29T20:54:17.019Z,99.90
2023-01-29T20:56:45.209Z,99.90
2023-01-29T20:59:14.175Z,99.90
2023-01-29T21:01:42.060Z,99.90
2023-01-29T21:04:09.489Z,99.90
2023-01-29T21:06:36.704Z,99.90
2023-01-29T21:09:03.698Z,99.90
2023-01-29T21:11:32.237Z,99.90
2023-01-29T21:13:59.572Z,99.90
2023-01-29T21:16:26.745Z,99.90
2023-01-29T21:18:53.855Z,99.90
2023-01-29T21:21:21.078Z,99.90
2023-01-29T21:23:48.379Z,99.90
2023-01-29T21:26:15.691Z,99.90
2023-01-29T21:28:42.859Z,99.90
2023-01-29T21:31:10.427Z,99.90
2023-01-29T21:33:37.598Z,99.90
2023-01-29T21:36:04.596Z,99.90
2023-01-29T21:38:31.648Z,99.90
2023-01-29T21:40:58.784Z,99.90
2023-01-29T21:43:25.851Z,99.90
2023-01-29T21:45:52.850Z,99.90
2023-01-29T21:48:20.369Z,99.90
2023-01-29T21:50:48.953Z,99.90
2023-01-29T21:53:16.024Z,99.90
2023-01-29T21:55:45.486Z,99.90
2023-01-29T21:58:14.375Z,99.90
2023-01-29T22:00:47.142Z,99.90
2023-01-29T22:03:14.291Z,99.90
2023-01-29T22:05:41.846Z,99.90
2023-01-29T22:08:10.056Z,99.90
2023-01-29T22:10:37.968Z,99.90
2023-01-29T22:13:08.014Z,99.90
2023-01-29T22:15:35.128Z,99.90
2023-01-29T22:18:04.940Z,99.90
2023-01-29T22:20:32.140Z,99.90
2023-01-29T22:23:00.776Z,99.90
2023-01-29T22:25:28.075Z,99.90
2023-01-29T22:27:55.520Z,99.90
2023-01-29T22:30:23.654Z,99.90
2023-01-29T22:32:50.917Z,99.90
2023-01-29T22:35:18.215Z,99.90
2023-01-29T22:37:45.481Z,99.90
2023-01-29T22:40:13.111Z,99.90
2023-01-29T22:42:40.271Z,99.90
2023-01-29T22:45:07.427Z,99.90
2023-01-29T22:47:34.780Z,99.90
2023-01-29T22:50:02.065Z,99.90
2023-01-29T22:52:38.675Z,99.90
2023-01-29T22:55:06.103Z,99.90
2023-01-29T22:57:33.450Z,99.90
2023-01-29T23:00:00.629Z,99.90
2023-01-29T23:02:27.955Z,99.90
2023-01-29T23:04:55.276Z,99.90
2023-01-29T23:07:22.492Z,99.90
2023-01-29T23:09:49.668Z,99.90
2023-01-29T23:12:16.999Z,99.90
2023-01-29T23:14:44.286Z,99.90
2023-01-29T23:17:11.608Z,99.90
2023-01-29T23:19:38.888Z,99.90
2023-01-29T23:22:06.107Z,99.90
2023-01-29T23:24:33.276Z,99.90
2023-01-29T23:27:15.586Z,99.90
2023-01-29T23:29:42.839Z,99.90
2023-01-29T23:32:12.879Z,99.90
2023-01-29T23:34:40.092Z,99.90
2023-01-29T23:37:07.221Z,99.90
2023-01-29T23:39:34.232Z,99.90
2023-01-29T23:42:01.367Z,99.90
2023-01-29T23:44:28.509Z,99.90
2023-01-29T23:46:55.574Z,99.90
2023-01-29T23:49:22.787Z,99.90
2023-01-29T23:51:49.871Z,99.90
2023-01-29T23:54:16.973Z,99.90
2023-01-29T23:56:44.112Z,99.90
2023-01-29T23:59:11.275Z,99.90
